createdAt,value
2022-07-26T00:00:54.048Z,100123.13
2022-07-26T00:03:20.507Z,100115.25
2022-07-26T00:05:47.020Z,100111.13
2022-07-26T00:08:13.497Z,100115.19
2022-07-26T00:10:45.795Z,100116.50
2022-07-26T00:13:12.816Z,100109.16
2022-07-26T00:15:39.776Z,100103.13
2022-07-26T00:18:06.369Z,100112.91
2022-07-26T00:20:38.486Z,100109.09
2022-07-26T00:23:05.397Z,100116.91
2022-07-26T00:25:32.018Z,100113.81
2022-07-26T00:27:58.397Z,100121.34
2022-07-26T00:30:25.044Z,100104.22
2022-07-26T00:32:52.696Z,100117.94
2022-07-26T00:35:20.493Z,100122.31
2022-07-26T00:37:47.004Z,100122.53
2022-07-26T00:40:14.389Z,100123.03
2022-07-26T00:42:41.037Z,100121.03
2022-07-26T00:45:09.313Z,100113.44
2022-07-26T00:47:36.157Z,100124.53
2022-07-26T00:50:04.195Z,100119.84
2022-07-26T00:52:30.786Z,100122.22
2022-07-26T00:54:57.963Z,100101.41
2022-07-26T00:57:24.561Z,100121.84
2022-07-26T00:59:51.195Z,100105.34
2022-07-26T01:02:18.363Z,100125.44
2022-07-26T01:04:45.497Z,100121.28
2022-07-26T01:07:15.214Z,100111.09
2022-07-26T01:09:42.650Z,100117.06
2022-07-26T01:12:09.507Z,100100.63
2022-07-26T01:14:35.987Z,100122.41
2022-07-26T01:17:02.755Z,100119.97
2022-07-26T01:19:29.175Z,100121.28
2022-07-26T01:21:55.576Z,100119.06
2022-07-26T01:24:21.961Z,100119.81
2022-07-26T01:26:48.317Z,100111.94
2022-07-26T01:29:14.724Z,100114.31
2022-07-26T01:31:41.193Z,100109.06
2022-07-26T01:34:07.973Z,100121.03
2022-07-26T01:36:34.516Z,100115.03
2022-07-26T01:39:00.875Z,100123.06
2022-07-26T01:41:37.846Z,100118.63
2022-07-26T01:44:06.313Z,100117.59
2022-07-26T01:46:34.015Z,100125.22
2022-07-26T01:49:01.657Z,100130.19
2022-07-26T01:51:28.268Z,100130.75
2022-07-26T01:53:54.619Z,100129.94
2022-07-26T01:56:21.013Z,100127.81
2022-07-26T01:58:47.403Z,100131.34
2022-07-26T02:01:13.763Z,100136.41
2022-07-26T02:03:40.170Z,100137.06
2022-07-26T02:06:07.183Z,100140.88
2022-07-26T02:08:33.569Z,100147.09
2022-07-26T02:11:00.579Z,100141.09
2022-07-26T02:13:42.245Z,100137.81
2022-07-26T02:16:11.503Z,100148.03
2022-07-26T02:18:38.269Z,100152.88
2022-07-26T02:21:05.777Z,100148.91
2022-07-26T02:23:33.508Z,100158.88
2022-07-26T02:26:00.622Z,100128.88
2022-07-26T02:28:27.537Z,100144.59
2022-07-26T02:30:54.279Z,100155.03
2022-07-26T02:33:20.874Z,100162.66
2022-07-26T02:35:47.726Z,100164.56
2022-07-26T02:38:16.281Z,100162.66
2022-07-26T02:40:44.004Z,100157.50
2022-07-26T02:43:11.213Z,100167.75
2022-07-26T02:45:37.895Z,100164.47
2022-07-26T02:48:04.725Z,100168.22
2022-07-26T02:50:32.039Z,100174.94
2022-07-26T02:52:58.793Z,100166.72
2022-07-26T02:55:26.849Z,100158.00
2022-07-26T02:57:53.500Z,100167.88
2022-07-26T03:00:23.256Z,100164.69
2022-07-26T03:02:51.239Z,100165.03
2022-07-26T03:05:18.435Z,100161.50
2022-07-26T03:07:44.975Z,100152.59
2022-07-26T03:10:11.674Z,100159.06
2022-07-26T03:12:38.081Z,100165.28
2022-07-26T03:15:05.473Z,100171.03
2022-07-26T03:17:32.216Z,100173.47
2022-07-26T03:19:58.843Z,100175.09
2022-07-26T03:22:25.293Z,100175.72
2022-07-26T03:24:51.673Z,100180.28
2022-07-26T03:27:18.014Z,100178.41
2022-07-26T03:29:44.392Z,100183.59
2022-07-26T03:32:10.828Z,100182.97
2022-07-26T03:34:37.209Z,100170.78
2022-07-26T03:37:03.998Z,100195.56
2022-07-26T03:39:30.482Z,100187.44
2022-07-26T03:41:56.915Z,100187.69
2022-07-26T03:44:23.314Z,100202.53
2022-07-26T03:46:49.669Z,100171.72
2022-07-26T03:49:17.223Z,100176.56
2022-07-26T03:51:43.978Z,100184.41
2022-07-26T03:54:10.894Z,100195.22
2022-07-26T03:56:37.830Z,100185.44
2022-07-26T03:59:06.910Z,100189.00
2022-07-26T04:01:35.087Z,100187.69
2022-07-26T04:04:01.828Z,100193.31
2022-07-26T04:06:28.388Z,100193.56
2022-07-26T04:08:55.118Z,100199.56
2022-07-26T04:11:21.606Z,100200.38
2022-07-26T04:13:53.304Z,100188.06
2022-07-26T04:16:19.807Z,100199.81
2022-07-26T04:18:46.417Z,100204.72
2022-07-26T04:21:12.856Z,100205.47
2022-07-26T04:23:39.297Z,100200.28
2022-07-26T04:26:05.830Z,100202.41
2022-07-26T04:28:33.211Z,100202.16
2022-07-26T04:31:00.848Z,100198.72
2022-07-26T04:33:27.615Z,100203.09
2022-07-26T04:35:54.100Z,100187.59
2022-07-26T04:38:20.615Z,100193.09
2022-07-26T04:40:46.998Z,100206.97
2022-07-26T04:43:15.654Z,100202.38
2022-07-26T04:45:44.005Z,100189.09
2022-07-26T04:48:10.393Z,100203.41
2022-07-26T04:50:36.912Z,100202.34
2022-07-26T04:53:03.337Z,100201.19
2022-07-26T04:55:29.736Z,100206.84
2022-07-26T04:57:56.225Z,100207.66
2022-07-26T05:00:24.935Z,100199.78
2022-07-26T05:02:55.463Z,100201.91
2022-07-26T05:05:22.803Z,100207.56
2022-07-26T05:07:52.048Z,100213.81
2022-07-26T05:10:19.809Z,100221.41
2022-07-26T05:12:47.149Z,100203.22
2022-07-26T05:15:14.718Z,100207.41
2022-07-26T05:17:43.504Z,100209.31
2022-07-26T05:20:12.355Z,100207.66
2022-07-26T05:22:39.366Z,100205.56
2022-07-26T05:25:07.461Z,100208.63
2022-07-26T05:27:34.073Z,100215.91
2022-07-26T05:30:00.748Z,100216.50
2022-07-26T05:32:28.154Z,100213.56
2022-07-26T05:34:54.651Z,100217.91
2022-07-26T05:37:21.111Z,100220.38
2022-07-26T05:39:47.496Z,100221.91
2022-07-26T05:42:13.868Z,100217.91
2022-07-26T05:44:42.471Z,100219.31
2022-07-26T05:47:10.124Z,100219.56
2022-07-26T05:49:40.465Z,100220.84
2022-07-26T05:52:07.201Z,100224.03
2022-07-26T05:54:33.560Z,100222.38
2022-07-26T05:56:59.906Z,100222.97
2022-07-26T05:59:26.271Z,100227.34
2022-07-26T06:01:56.187Z,100228.13
2022-07-26T06:04:26.862Z,100230.84
2022-07-26T06:06:54.702Z,100229.28
2022-07-26T06:09:24.061Z,100232.09
2022-07-26T06:11:50.773Z,100210.59
2022-07-26T06:14:17.116Z,100231.22
2022-07-26T06:16:43.592Z,100232.84
2022-07-26T06:19:09.985Z,100235.00
2022-07-26T06:21:36.402Z,100241.25
2022-07-26T06:24:02.920Z,100244.75
2022-07-26T06:26:29.320Z,100217.28
2022-07-26T06:28:55.805Z,100241.34
2022-07-26T06:31:23.097Z,100248.38
2022-07-26T06:33:49.626Z,100242.63
2022-07-26T06:36:16.113Z,100258.38
2022-07-26T06:38:42.650Z,100261.56
2022-07-26T06:41:09.070Z,100252.63
2022-07-26T06:43:35.475Z,100262.00
2022-07-26T06:46:01.986Z,100252.94
2022-07-26T06:48:28.407Z,100266.31
2022-07-26T06:50:55.397Z,100270.50
2022-07-26T06:53:21.820Z,100272.16
2022-07-26T06:55:48.290Z,100273.78
2022-07-26T06:58:14.657Z,100274.59
2022-07-26T07:00:41.156Z,100269.16
2022-07-26T07:03:07.621Z,100277.66
2022-07-26T07:05:34.400Z,100281.50
2022-07-26T07:08:00.772Z,100260.81
2022-07-26T07:10:28.757Z,100280.28
2022-07-26T07:12:56.118Z,100274.69
2022-07-26T07:15:22.598Z,100256.81
2022-07-26T07:17:51.488Z,100274.75
2022-07-26T07:20:18.025Z,100270.72
2022-07-26T07:22:44.406Z,100263.09
2022-07-26T07:25:10.777Z,100279.66
2022-07-26T07:27:41.181Z,100297.31
2022-07-26T07:30:08.587Z,100241.78
2022-07-26T07:32:35.652Z,100293.63
2022-07-26T07:35:02.174Z,100297.16
2022-07-26T07:37:28.589Z,100291.06
2022-07-26T07:40:15.136Z,100276.88
2022-07-26T07:42:41.521Z,100287.38
2022-07-26T07:45:09.256Z,100289.09
2022-07-26T07:47:35.831Z,100308.66
2022-07-26T07:50:02.314Z,100304.44
2022-07-26T07:52:28.799Z,100317.59
2022-07-26T07:55:11.639Z,100306.13
2022-07-26T07:57:41.531Z,100306.53
2022-07-26T08:00:08.847Z,100302.00
2022-07-26T08:02:35.207Z,100311.34
2022-07-26T08:05:04.895Z,100313.25
2022-07-26T08:07:40.855Z,100319.13
2022-07-26T08:10:08.489Z,100322.56
2022-07-26T08:12:34.885Z,100314.81
2022-07-26T08:15:02.452Z,100301.88
2022-07-26T08:17:35.239Z,100283.22
2022-07-26T08:20:06.841Z,100310.84
2022-07-26T08:22:35.488Z,100312.44
2022-07-26T08:25:01.919Z,100317.59
2022-07-26T08:27:28.805Z,100321.47
2022-07-26T08:29:55.170Z,100307.19
2022-07-26T08:32:21.587Z,100326.28
2022-07-26T08:34:48.031Z,100323.59
2022-07-26T08:37:17.393Z,100327.09
2022-07-26T08:39:44.953Z,100330.84
2022-07-26T08:42:22.679Z,100322.38
2022-07-26T08:44:51.367Z,100325.63
2022-07-26T08:47:20.850Z,100336.06
2022-07-26T08:50:04.851Z,100337.03
2022-07-26T08:52:31.410Z,100348.09
2022-07-26T08:54:57.814Z,100350.38
2022-07-26T08:57:24.220Z,100322.97
2022-07-26T09:00:19.906Z,100348.59
2022-07-26T09:02:46.976Z,100335.06
2022-07-26T09:05:13.873Z,100348.78
2022-07-26T09:07:41.339Z,100347.41
2022-07-26T09:10:10.428Z,100348.78
2022-07-26T09:12:37.994Z,100350.16
2022-07-26T09:15:06.897Z,100351.22
2022-07-26T09:17:45.887Z,100350.75
2022-07-26T09:20:32.718Z,100354.94
2022-07-26T09:23:08.864Z,100355.97
2022-07-26T09:25:40.146Z,100366.28
2022-07-26T09:28:30.953Z,100361.91
2022-07-26T09:31:00.465Z,100356.72
2022-07-26T09:33:42.992Z,100357.34
2022-07-26T09:36:09.784Z,100348.91
2022-07-26T09:38:47.226Z,100356.00
2022-07-26T09:41:34.758Z,100347.19
2022-07-26T09:44:19.169Z,100353.63
2022-07-26T09:46:57.350Z,100356.16
2022-07-26T09:49:29.550Z,100351.56
2022-07-26T09:52:20.826Z,100361.66
2022-07-26T09:54:49.568Z,100347.25
2022-07-26T09:57:20.289Z,100350.25
2022-07-26T09:59:47.423Z,100364.72
2022-07-26T10:02:14.232Z,100330.06
2022-07-26T10:04:43.527Z,100358.69
2022-07-26T10:07:10.673Z,100343.44
2022-07-26T10:09:55.379Z,100367.13
2022-07-26T10:12:30.342Z,100353.50
2022-07-26T10:14:57.176Z,100366.47
2022-07-26T10:17:30.881Z,100363.13
2022-07-26T10:19:59.225Z,100370.28
2022-07-26T10:22:30.490Z,100362.41
2022-07-26T10:25:17.852Z,100356.97
2022-07-26T10:27:45.905Z,100365.94
2022-07-26T10:30:22.388Z,100355.69
2022-07-26T10:32:54.719Z,100356.44
2022-07-26T10:35:36.465Z,100356.50
2022-07-26T10:38:23.457Z,100354.09
2022-07-26T10:40:58.223Z,100356.44
2022-07-26T10:43:42.079Z,100364.91
2022-07-26T10:46:18.603Z,100357.78
2022-07-26T10:48:58.643Z,100354.59
2022-07-26T10:51:36.058Z,100353.25
2022-07-26T10:54:05.416Z,100364.81
2022-07-26T10:56:33.667Z,100364.16
2022-07-26T10:59:00.935Z,100362.25
2022-07-26T11:01:42.058Z,100352.59
2022-07-26T11:04:21.900Z,100366.97
2022-07-26T11:06:48.951Z,100367.88
2022-07-26T11:09:15.963Z,100352.28
2022-07-26T11:11:46.821Z,100367.16
2022-07-26T11:14:17.360Z,100366.59
2022-07-26T11:16:47.183Z,100368.22
2022-07-26T11:19:15.401Z,100357.03
2022-07-26T11:21:42.513Z,100362.75
2022-07-26T11:24:09.528Z,100355.94
2022-07-26T11:26:46.767Z,100355.16
2022-07-26T11:29:17.089Z,100361.72
2022-07-26T11:31:51.594Z,100358.16
2022-07-26T11:34:33.060Z,100362.81
2022-07-26T11:37:02.229Z,100362.69
2022-07-26T11:39:30.530Z,100361.53
2022-07-26T11:42:05.361Z,100359.03
2022-07-26T11:44:32.524Z,100351.13
2022-07-26T11:46:59.469Z,100326.53
2022-07-26T11:52:24.878Z,100358.47
2022-07-26T11:54:53.191Z,100361.00
2022-07-26T11:57:20.203Z,100360.53
2022-07-26T11:59:48.384Z,100358.81
2022-07-26T12:02:15.479Z,100376.19
2022-07-26T12:04:43.650Z,100375.16
2022-07-26T12:07:15.861Z,100361.63
2022-07-26T12:09:51.604Z,100385.72
2022-07-26T12:12:31.240Z,100384.63
2022-07-26T12:15:16.074Z,100394.47
2022-07-26T12:17:59.170Z,100373.69
2022-07-26T12:20:28.499Z,100381.91
2022-07-26T12:22:57.516Z,100389.28
2022-07-26T12:25:28.255Z,100381.91
2022-07-26T12:27:54.776Z,100391.19
2022-07-26T12:30:22.737Z,100388.75
2022-07-26T12:32:51.850Z,100402.09
2022-07-26T12:35:29.259Z,100397.69
2022-07-26T12:37:55.667Z,100404.66
2022-07-26T12:40:39.544Z,100397.75
2022-07-26T12:43:05.888Z,100396.66
2022-07-26T12:45:34.778Z,100389.75
2022-07-26T12:48:06.703Z,100391.38
2022-07-26T12:50:33.201Z,100396.66
2022-07-26T12:53:02.551Z,100392.63
2022-07-26T12:55:29.198Z,100382.88
2022-07-26T12:57:55.876Z,100397.09
2022-07-26T13:00:24.160Z,100389.72
2022-07-26T13:02:51.374Z,100386.41
2022-07-26T13:05:17.847Z,100388.81
2022-07-26T13:07:44.439Z,100378.69
2022-07-26T13:12:57.468Z,100392.50
2022-07-26T13:15:23.847Z,100397.38
2022-07-26T13:18:03.180Z,100384.94
2022-07-26T13:20:30.566Z,100384.84
2022-07-26T13:22:57.050Z,100376.72
2022-07-26T13:25:23.543Z,100378.31
2022-07-26T13:27:51.481Z,100379.00
2022-07-26T13:30:18.176Z,100370.06
2022-07-26T13:32:45.086Z,100358.19
2022-07-26T13:35:11.873Z,100377.81
2022-07-26T13:37:39.204Z,100369.28
2022-07-26T13:40:06.440Z,100371.09
2022-07-26T13:42:33.043Z,100344.88
2022-07-26T13:44:59.514Z,100369.88
2022-07-26T13:47:26.143Z,100371.09
2022-07-26T13:49:52.601Z,100359.88
2022-07-26T13:52:19.167Z,100371.31
2022-07-26T13:54:45.752Z,100370.13
2022-07-26T13:57:12.290Z,100354.13
2022-07-26T13:59:38.720Z,100354.66
2022-07-26T14:02:07.959Z,100374.59
2022-07-26T14:04:34.998Z,100367.69
2022-07-26T14:07:01.618Z,100373.72
2022-07-26T14:09:28.177Z,100379.84
2022-07-26T14:11:54.761Z,100367.03
2022-07-26T14:14:21.540Z,100358.94
2022-07-26T14:16:49.553Z,100373.09
2022-07-26T14:19:16.403Z,100374.59
2022-07-26T14:21:58.757Z,100373.78
2022-07-26T14:24:27.600Z,100375.34
2022-07-26T14:26:58.603Z,100373.91
2022-07-26T14:29:26.325Z,100375.91
2022-07-26T14:31:53.421Z,100382.44
2022-07-26T14:34:20.192Z,100384.59
2022-07-26T14:36:46.925Z,100387.53
2022-07-26T14:39:13.359Z,100395.16
2022-07-26T14:41:39.872Z,100386.66
2022-07-26T14:44:06.731Z,100387.72
2022-07-26T14:46:33.307Z,100389.88
2022-07-26T14:48:59.825Z,100372.69
2022-07-26T14:51:26.433Z,100400.28
2022-07-26T14:53:52.927Z,100394.59
2022-07-26T14:56:19.368Z,100395.16
2022-07-26T14:58:45.847Z,100394.88
2022-07-26T15:01:12.450Z,100393.25
2022-07-26T15:03:39.030Z,100389.19
2022-07-26T15:06:05.489Z,100399.66
2022-07-26T15:08:31.926Z,100400.47
2022-07-26T15:10:58.588Z,100408.38
2022-07-26T15:13:25.131Z,100405.38
2022-07-26T15:15:51.925Z,100403.97
2022-07-26T15:18:18.357Z,100412.66
2022-07-26T15:20:44.824Z,100404.16
2022-07-26T15:23:12.373Z,100400.28
2022-07-26T15:25:38.878Z,100409.44
2022-07-26T15:28:05.573Z,100409.88
2022-07-26T15:30:33.029Z,100421.72
2022-07-26T15:33:01.964Z,100416.22
2022-07-26T15:35:29.896Z,100424.25
2022-07-26T15:37:57.618Z,100406.69
2022-07-26T15:40:24.548Z,100415.63
2022-07-26T15:42:52.152Z,100419.31
2022-07-26T15:45:20.007Z,100423.16
2022-07-26T15:47:59.316Z,100418.75
2022-07-26T15:50:33.576Z,100417.28
2022-07-26T15:53:00.038Z,100416.94
2022-07-26T15:55:26.553Z,100418.69
2022-07-26T15:57:53.029Z,100418.56
2022-07-26T16:00:19.440Z,100415.47
2022-07-26T16:02:45.921Z,100420.47
2022-07-26T16:05:13.234Z,100417.75
2022-07-26T16:07:43.990Z,100421.06
2022-07-26T16:10:12.164Z,100417.75
2022-07-26T16:12:39.842Z,100424.59
2022-07-26T16:15:08.226Z,100412.00
2022-07-26T16:17:34.832Z,100416.88
2022-07-26T16:20:01.605Z,100401.63
2022-07-26T16:22:28.181Z,100410.22
2022-07-26T16:24:54.543Z,100413.56
2022-07-26T16:27:20.893Z,100409.28
2022-07-26T16:29:51.986Z,100409.31
2022-07-26T16:32:20.527Z,100416.75
2022-07-26T16:34:46.882Z,100406.41
2022-07-26T16:37:13.270Z,100413.69
2022-07-26T16:39:39.760Z,100401.47
2022-07-26T16:42:07.335Z,100410.91
2022-07-26T16:44:35.897Z,100413.34
2022-07-26T16:47:02.493Z,100423.22
2022-07-26T16:49:29.030Z,100410.50
2022-07-26T16:51:56.795Z,100397.50
2022-07-26T16:54:23.274Z,100411.38
2022-07-26T16:56:49.709Z,100412.50
2022-07-26T16:59:16.676Z,100417.38
2022-07-26T17:01:43.642Z,100419.50
2022-07-26T17:04:10.301Z,100412.00
2022-07-26T17:06:37.052Z,100433.75
2022-07-26T17:09:03.554Z,100419.94
2022-07-26T17:11:29.930Z,100434.94
2022-07-26T17:13:56.278Z,100420.00
2022-07-26T17:16:25.043Z,100419.28
2022-07-26T17:18:52.595Z,100417.75
2022-07-26T17:21:19.016Z,100416.03
2022-07-26T17:23:45.447Z,100415.97
2022-07-26T17:26:11.791Z,100423.47
2022-07-26T17:28:38.142Z,100424.97
2022-07-26T17:31:04.535Z,100429.16
2022-07-26T17:33:31.028Z,100421.84
2022-07-26T17:35:57.448Z,100432.81
2022-07-26T17:38:28.761Z,100426.84
2022-07-26T17:40:56.616Z,100428.34
2022-07-26T17:43:23.002Z,100426.72
2022-07-26T17:45:50.307Z,100423.94
2022-07-26T17:48:16.698Z,100421.31
2022-07-26T17:50:43.094Z,100426.31
2022-07-26T17:53:09.460Z,100422.44
2022-07-26T17:55:35.941Z,100415.94
2022-07-26T17:58:02.383Z,100422.88
2022-07-26T18:00:29.465Z,100421.72
2022-07-26T18:02:56.820Z,100431.69
2022-07-26T18:05:27.236Z,100426.75
2022-07-26T18:07:59.144Z,100424.03
2022-07-26T18:10:27.504Z,100406.88
2022-07-26T18:12:54.673Z,100427.41
2022-07-26T18:15:21.332Z,100438.44
2022-07-26T18:17:47.740Z,100429.28
2022-07-26T18:20:14.106Z,100442.41
2022-07-26T18:22:40.541Z,100443.53
2022-07-26T18:25:07.711Z,100417.56
2022-07-26T18:27:34.085Z,100441.66
2022-07-26T18:30:00.522Z,100429.88
2022-07-26T18:32:27.186Z,100435.31
2022-07-26T18:34:53.694Z,100408.28
2022-07-26T18:37:20.835Z,100430.25
2022-07-26T18:39:47.885Z,100432.09
2022-07-26T18:42:14.400Z,100441.34
2022-07-26T18:44:41.076Z,100431.34
2022-07-26T18:47:07.902Z,100428.88
2022-07-26T18:49:35.136Z,100430.47
2022-07-26T18:52:08.371Z,100429.56
2022-07-26T18:54:35.883Z,100422.41
2022-07-26T18:57:02.343Z,100434.91
2022-07-26T18:59:29.696Z,100443.69
2022-07-26T19:01:57.752Z,100443.03
2022-07-26T19:04:24.859Z,100441.97
2022-07-26T19:06:51.506Z,100432.19
2022-07-26T19:09:18.396Z,100449.31
2022-07-26T19:11:47.934Z,100429.81
2022-07-26T19:14:14.381Z,100453.06
2022-07-26T19:16:40.858Z,100448.56
2022-07-26T19:19:07.269Z,100471.31
2022-07-26T19:21:33.717Z,100475.53
2022-07-26T19:24:00.188Z,100481.91
2022-07-26T19:26:27.420Z,100476.50
2022-07-26T19:28:53.989Z,100466.41
2022-07-26T19:31:21.212Z,100491.00
2022-07-26T19:33:47.609Z,100469.03
2022-07-26T19:36:18.060Z,100493.38
2022-07-26T19:38:52.769Z,100482.19
2022-07-26T19:41:19.875Z,100490.09
2022-07-26T19:43:46.400Z,100474.94
2022-07-26T19:46:13.051Z,100482.81
2022-07-26T19:48:39.644Z,100480.00
2022-07-26T19:51:06.208Z,100498.25
2022-07-26T19:53:32.632Z,100491.34
2022-07-26T19:55:59.010Z,100497.69
2022-07-26T19:58:26.146Z,100484.78
2022-07-26T20:00:53.583Z,100504.75
2022-07-26T20:03:19.982Z,100501.22
2022-07-26T20:05:46.499Z,100482.66
2022-07-26T20:08:13.402Z,100502.06
2022-07-26T20:10:39.938Z,100509.47
2022-07-26T20:13:06.375Z,100488.75
2022-07-26T20:15:32.941Z,100510.06
2022-07-26T20:17:59.314Z,100508.97
2022-07-26T20:20:25.718Z,100521.81
2022-07-26T20:22:52.081Z,100521.34
2022-07-26T20:25:21.634Z,100507.25
2022-07-26T20:27:49.783Z,100531.25
2022-07-26T20:30:16.262Z,100534.19
2022-07-26T20:32:43.631Z,100536.41
2022-07-26T20:35:10.206Z,100525.34
2022-07-26T20:37:36.933Z,100525.94
2022-07-26T20:40:04.407Z,100527.00
2022-07-26T20:42:30.747Z,100530.97
2022-07-26T20:44:58.255Z,100532.41
2022-07-26T20:47:25.295Z,100533.22
2022-07-26T20:49:51.801Z,100542.16
2022-07-26T20:52:18.533Z,100533.09
2022-07-26T20:54:44.941Z,100531.94
2022-07-26T20:57:11.370Z,100539.09
2022-07-26T20:59:38.186Z,100534.19
2022-07-26T21:02:05.037Z,100545.94
2022-07-26T21:04:32.212Z,100552.88
2022-07-26T21:06:58.864Z,100544.78
2022-07-26T21:09:30.377Z,100539.38
2022-07-26T21:11:56.967Z,100553.72
2022-07-26T21:14:23.504Z,100558.66
2022-07-26T21:16:50.227Z,100566.66
2022-07-26T21:19:16.752Z,100562.41
2022-07-26T21:21:43.266Z,100569.47
2022-07-26T21:24:09.705Z,100568.28
2022-07-26T21:26:36.300Z,100565.09
2022-07-26T21:29:02.979Z,100562.75
2022-07-26T21:31:29.526Z,100560.88
2022-07-26T21:33:56.185Z,100566.28
2022-07-26T21:36:22.778Z,100559.69
2022-07-26T21:38:49.237Z,100558.97
2022-07-26T21:41:15.662Z,100558.47
2022-07-26T21:43:42.196Z,100565.41
2022-07-26T21:46:12.802Z,100572.53
2022-07-26T21:48:39.786Z,100571.00
2022-07-26T21:51:06.203Z,100577.22
2022-07-26T21:53:32.624Z,100569.34
2022-07-26T21:55:59.029Z,100577.31
2022-07-26T21:58:27.990Z,100570.75
2022-07-26T22:01:03.417Z,100576.28
2022-07-26T22:03:35.814Z,100559.22
2022-07-26T22:06:02.389Z,100571.19
2022-07-26T22:08:28.958Z,100572.94
2022-07-26T22:10:55.354Z,100578.81
2022-07-26T22:13:21.773Z,100575.06
2022-07-26T22:15:48.309Z,100577.41
2022-07-26T22:18:14.879Z,100576.81
2022-07-26T22:20:42.194Z,100580.41
2022-07-26T22:23:10.877Z,100573.00
2022-07-26T22:25:38.425Z,100573.78
2022-07-26T22:28:06.224Z,100578.03
2022-07-26T22:30:32.835Z,100568.16
2022-07-26T22:33:01.410Z,100584.13
2022-07-26T22:35:32.281Z,100585.19
2022-07-26T22:38:03.650Z,100587.06
2022-07-26T22:40:30.234Z,100590.28
2022-07-26T22:42:58.598Z,100595.09
2022-07-26T22:45:26.446Z,100583.72
2022-07-26T22:47:56.178Z,100567.06
2022-07-26T22:50:24.821Z,100574.09
2022-07-26T22:52:52.059Z,100577.88
2022-07-26T22:55:18.637Z,100580.34
2022-07-26T22:57:45.491Z,100590.66
2022-07-26T23:00:14.133Z,100580.94
2022-07-26T23:02:40.622Z,100593.66
2022-07-26T23:05:07.781Z,100585.16
2022-07-26T23:07:35.716Z,100583.16
2022-07-26T23:10:02.236Z,100585.94
2022-07-26T23:12:28.708Z,100573.38
2022-07-26T23:14:55.187Z,100594.31
2022-07-26T23:17:21.662Z,100592.69
2022-07-26T23:19:48.090Z,100602.63
2022-07-26T23:22:14.765Z,100598.97
2022-07-26T23:24:41.278Z,100589.13
2022-07-26T23:27:10.250Z,100604.03
2022-07-26T23:29:37.250Z,100600.38
2022-07-26T23:32:03.833Z,100597.50
2022-07-26T23:34:30.193Z,100590.28
2022-07-26T23:36:56.581Z,100582.47
2022-07-26T23:39:22.997Z,100587.00
2022-07-26T23:41:49.358Z,100579.75
2022-07-26T23:44:15.790Z,100607.28
2022-07-26T23:46:42.280Z,100571.06
2022-07-26T23:49:09.075Z,100592.75
2022-07-26T23:51:35.712Z,100600.84
2022-07-26T23:54:02.141Z,100601.50
2022-07-26T23:56:28.553Z,100598.44
2022-07-26T23:58:54.981Z,100594.53
